Time;durP1;ratioP1;P1;durP2;ratioP2;P2;SDS_P1;SDS_P2;PMS_P1;PMS_P2;Temp;Humidity;BMP_temperature;BMP_pressure;BME280_temperature;BME280_humidity;BME280_pressure;Samples;Min_cycle;Max_cycle;Signal;HPM_P1;HPM_P2
2024/03/10 00:01:44;;;;;;;13.23;5.23;;;;;;;7.04;89.67;100082.28;5076112;28;20445;-69
2024/03/10 00:04:12;;;;;;;7.57;3.20;;;;;;;7.06;89.56;100086.28;5075335;28;20487;-69
2024/03/10 00:06:38;;;;;;;7.10;3.37;;;;;;;7.05;89.70;100081.19;5075648;28;20446;-69
2024/03/10 00:09:06;;;;;;;10.10;5.40;;;;;;;7.01;89.48;100074.78;5075278;28;20977;-69
2024/03/10 00:11:33;;;;;;;10.60;3.37;;;;;;;7.01;89.47;100072.09;5075604;28;20437;-69
2024/03/10 00:14:00;;;;;;;7.33;3.20;;;;;;;7.01;89.49;100074.78;5075976;28;20453;-69
2024/03/10 00:16:27;;;;;;;7.87;3.93;;;;;;;7.00;89.53;100074.00;5075580;28;20478;-69
2024/03/10 00:18:53;;;;;;;13.53;4.57;;;;;;;7.03;89.53;100065.31;5075539;28;20496;-68
2024/03/10 00:21:20;;;;;;;9.70;3.73;;;;;;;7.02;89.34;100065.59;5076034;28;21013;-68
2024/03/10 00:23:46;;;;;;;8.30;3.73;;;;;;;6.98;89.41;100065.38;5075207;28;20489;-68
2024/03/10 00:26:15;;;;;;;10.40;3.93;;;;;;;6.99;89.48;100063.47;5075612;28;20477;-68
2024/03/10 00:28:41;;;;;;;10.30;5.00;;;;;;;6.95;89.35;100068.66;5074967;28;20452;-68
2024/03/10 00:31:09;;;;;;;12.77;5.37;;;;;;;6.93;89.27;100067.34;5075375;28;20528;-68
2024/03/10 00:33:35;;;;;;;10.33;4.00;;;;;;;6.88;88.68;100067.41;5075423;28;20556;-68
2024/03/10 00:36:02;;;;;;;8.73;3.93;;;;;;;6.87;88.07;100063.13;5075072;28;20437;-68
2024/03/10 00:38:28;;;;;;;7.77;4.40;;;;;;;6.79;87.99;100073.44;5074867;28;20524;-68
2024/03/10 00:40:55;;;;;;;8.50;4.07;;;;;;;6.74;88.48;100078.09;5074957;28;20525;-68
2024/03/10 00:43:23;;;;;;;5.17;3.67;;;;;;;6.70;88.53;100069.00;5074833;28;20848;-68
2024/03/10 00:45:50;;;;;;;6.77;3.87;;;;;;;6.66;88.71;100068.75;5074694;28;20432;-68
2024/03/10 00:48:17;;;;;;;10.13;4.20;;;;;;;6.64;88.83;100076.31;5075174;28;20494;-68
2024/03/10 00:50:46;;;;;;;7.80;3.67;;;;;;;6.63;88.97;100073.91;5074455;28;20445;-69
2024/03/10 00:53:13;;;;;;;6.83;3.40;;;;;;;6.60;89.02;100074.47;5074303;28;20830;-69
2024/03/10 00:55:39;;;;;;;7.77;3.67;;;;;;;6.55;89.06;100070.78;5074607;28;20949;-69
2024/03/10 00:58:06;;;;;;;10.90;3.80;;;;;;;6.51;89.41;100069.75;5074641;28;20530;-70
2024/03/10 01:00:34;;;;;;;12.93;3.90;;;;;;;6.55;89.77;100064.56;5074919;28;20517;-69
2024/03/10 01:03:01;;;;;;;14.73;3.87;;;;;;;6.50;91.56;100060.03;5074381;28;20552;-69
2024/03/10 01:05:30;;;;;;;14.70;3.50;;;;;;;6.55;91.28;100068.09;5074218;28;20441;-69
2024/03/10 01:07:57;;;;;;;9.03;3.80;;;;;;;6.56;91.47;100063.50;5074186;28;20812;-69
2024/03/10 01:10:23;;;;;;;15.20;4.87;;;;;;;6.57;91.45;100065.91;5074435;28;20451;-69
2024/03/10 01:12:50;;;;;;;10.37;5.00;;;;;;;6.58;91.46;100061.31;5074733;28;20882;-69
2024/03/10 01:15:16;;;;;;;12.13;4.07;;;;;;;6.55;91.69;100057.31;5074291;28;20532;-69
2024/03/10 01:17:46;;;;;;;10.93;3.13;;;;;;;6.54;91.81;100054.91;5074264;28;20441;-69
2024/03/10 01:20:13;;;;;;;10.13;4.10;;;;;;;6.56;91.52;100053.53;5074849;28;20853;-69
2024/03/10 01:25:15;;;;;;;11.00;4.63;;;;;;;6.55;91.79;100048.41;5052096;28;20482;-66
2024/03/10 01:27:43;;;;;;;13.00;3.13;;;;;;;6.50;91.80;100041.22;5054489;28;20445;-66
2024/03/10 01:30:11;;;;;;;14.50;3.37;;;;;;;6.48;92.21;100039.91;5054925;28;20442;-66
2024/03/10 01:32:37;;;;;;;10.63;4.07;;;;;;;6.47;92.16;100035.63;5054301;28;20454;-67
2024/03/10 01:35:07;;;;;;;7.10;3.43;;;;;;;6.46;92.10;100036.69;5054039;28;20533;-68
2024/03/10 01:37:33;;;;;;;10.40;4.70;;;;;;;6.42;92.21;100030.28;5054074;28;20459;-68
2024/03/10 01:40:05;;;;;;;9.33;4.50;;;;;;;6.42;91.60;100022.22;5053840;28;20448;-68
2024/03/10 01:42:32;;;;;;;10.60;3.63;;;;;;;6.41;91.26;100023.31;5054373;28;20466;-68
2024/03/10 01:45:00;;;;;;;5.27;2.60;;;;;;;6.41;90.83;100018.72;5053834;28;20482;-68
2024/03/10 01:47:27;;;;;;;6.80;2.70;;;;;;;6.34;90.89;100012.13;5053781;28;20442;-68
2024/03/10 01:49:54;;;;;;;8.27;4.00;;;;;;;6.28;91.31;100009.47;5053564;28;20981;-68
2024/03/10 01:52:23;;;;;;;8.90;4.07;;;;;;;6.26;91.18;100011.66;5053654;28;20466;-68
2024/03/10 01:54:50;;;;;;;8.83;3.80;;;;;;;6.19;91.20;100010.38;5054252;28;20664;-68
2024/03/10 01:57:17;;;;;;;5.83;3.17;;;;;;;6.18;91.36;100012.25;5053985;28;20449;-68
2024/03/10 01:59:43;;;;;;;7.67;3.03;;;;;;;6.17;91.39;100007.97;5053605;28;20453;-68
2024/03/10 02:02:10;;;;;;;20.23;3.83;;;;;;;6.17;91.47;99999.91;5053789;28;20462;-68
2024/03/10 02:04:37;;;;;;;10.40;4.17;;;;;;;6.10;91.95;100006.72;5053469;28;20510;-68
2024/03/10 02:07:05;;;;;;;14.13;4.10;;;;;;;6.15;91.66;100004.75;5053012;28;20441;-68
2024/03/10 02:09:35;;;;;;;11.37;4.47;;;;;;;6.15;92.23;100004.75;5054447;28;20443;-68
2024/03/10 02:12:02;;;;;;;7.53;2.90;;;;;;;6.15;92.69;100006.66;5053414;28;20516;-68
2024/03/10 02:14:28;;;;;;;13.73;4.63;;;;;;;6.11;93.07;100003.75;5053872;28;20473;-68
2024/03/10 02:16:55;;;;;;;11.47;3.90;;;;;;;6.09;93.27;100000.53;5053324;28;20950;-68
2024/03/10 02:19:21;;;;;;;3.60;2.53;;;;;;;6.07;93.50;100006.22;5053074;28;20944;-68
2024/03/10 02:21:48;;;;;;;9.73;4.03;;;;;;;6.08;93.20;100009.69;5053419;28;20869;-68
2024/03/10 02:24:19;;;;;;;10.90;3.60;;;;;;;6.04;93.57;100014.84;5052960;28;20858;-68
2024/03/10 02:26:47;;;;;;;8.37;3.50;;;;;;;6.02;93.41;100005.44;5053837;28;20427;-68
2024/03/10 02:29:18;;;;;;;6.17;3.40;;;;;;;5.93;93.78;100007.16;5053276;28;20474;-68
2024/03/10 02:48:11;;;;;;;6.13;3.13;;;;;;;5.55;95.52;100004.25;5053110;28;20410;-67
2024/03/10 02:50:37;;;;;;;6.30;3.70;;;;;;;5.54;95.33;99997.28;5052787;28;20442;-67
2024/03/10 02:53:05;;;;;;;10.03;4.13;;;;;;;5.57;94.84;100008.25;5053003;28;20462;-67
2024/03/10 02:55:33;;;;;;;13.40;4.30;;;;;;;5.50;95.32;100004.31;5053003;28;20433;-68
2024/03/10 02:58:03;;;;;;;4.30;2.57;;;;;;;5.50;95.13;100007.00;5053190;28;20440;-68
2024/03/10 03:00:31;;;;;;;8.27;4.00;;;;;;;5.37;94.46;100003.06;5053355;28;20912;-68
2024/03/10 03:02:57;;;;;;;10.83;4.13;;;;;;;5.37;94.87;99996.91;5053100;28;20459;-68
2024/03/10 03:05:26;;;;;;;12.60;3.80;;;;;;;5.42;94.37;100002.22;5053276;28;20486;-68
2024/03/10 03:07:52;;;;;;;10.20;4.50;;;;;;;5.40;94.64;99994.47;5052724;28;20915;-68
2024/03/10 03:10:19;;;;;;;5.37;2.70;;;;;;;5.40;94.82;99991.78;5052976;28;20533;-68
2024/03/10 03:12:46;;;;;;;4.40;2.40;;;;;;;5.35;95.15;99997.16;5052839;28;20508;-68
2024/03/10 03:15:15;;;;;;;5.13;3.03;;;;;;;5.35;95.31;99999.03;5053249;28;20438;-68
2024/03/10 03:17:42;;;;;;;8.40;5.13;;;;;;;5.28;95.64;99992.13;5052845;28;20442;-68
2024/03/10 03:20:15;;;;;;;11.97;4.83;;;;;;;5.26;95.75;99988.09;5055801;28;20438;-68
2024/03/10 03:22:43;;;;;;;6.33;3.10;;;;;;;5.27;95.96;99981.66;5056527;28;20549;-68
2024/03/10 03:25:14;;;;;;;7.33;3.57;;;;;;;5.30;95.80;99992.63;5056282;28;20521;-69
2024/03/10 03:27:41;;;;;;;7.73;3.83;;;;;;;5.31;96.23;99994.25;5056472;28;20433;-68
2024/03/10 03:30:08;;;;;;;9.23;4.33;;;;;;;5.27;97.10;99995.91;5056134;28;20449;-69
2024/03/10 03:32:37;;;;;;;8.90;3.30;;;;;;;5.28;97.76;99997.50;5056238;28;20462;-69
2024/03/10 03:35:04;;;;;;;7.23;3.70;;;;;;;5.36;97.64;99995.25;5056487;28;20438;-69
2024/03/10 03:37:31;;;;;;;14.53;4.83;;;;;;;5.39;97.46;99997.41;5056522;28;20525;-67
2024/03/10 03:39:57;;;;;;;9.97;4.87;;;;;;;5.37;98.04;99994.22;5056118;28;20445;-67
2024/03/10 03:42:24;;;;;;;11.00;3.77;;;;;;;5.36;98.44;99995.25;5055806;28;20877;-67
2024/03/10 03:44:51;;;;;;;11.93;5.60;;;;;;;5.41;98.25;99987.19;5056096;28;20577;-67
2024/03/10 03:47:18;;;;;;;11.97;5.20;;;;;;;5.42;98.06;99986.91;5056706;28;20480;-67
2024/03/10 03:49:46;;;;;;;6.60;3.53;;;;;;;5.40;98.21;99982.88;5056063;28;20441;-67
2024/03/10 03:52:13;;;;;;;5.73;2.50;;;;;;;5.39;98.63;99986.66;5038135;28;20460;-67
2024/03/10 03:54:41;;;;;;;14.23;5.30;;;;;;;5.40;98.08;99982.88;5056034;28;20525;-67
2024/03/10 03:57:08;;;;;;;9.70;5.17;;;;;;;5.39;98.20;99986.66;5055637;28;20499;-67
2024/03/10 03:59:35;;;;;;;12.00;5.07;;;;;;;5.38;98.12;99990.44;5055796;28;20529;-67
2024/03/10 04:02:03;;;;;;;9.33;3.57;;;;;;;5.40;98.01;99988.25;5055903;28;20891;-67
2024/03/10 04:04:30;;;;;;;9.63;5.00;;;;;;;5.36;98.13;99987.22;5055706;28;20492;-67
2024/03/10 04:06:58;;;;;;;14.40;5.27;;;;;;;5.27;98.27;99977.09;5055416;28;20473;-67
2024/03/10 04:09:24;;;;;;;16.30;5.10;;;;;;;5.25;97.78;99981.13;5055384;28;20442;-67
2024/03/10 04:11:51;;;;;;;12.43;5.67;;;;;;;5.26;97.42;99980.03;5056078;28;20532;-66
2024/03/10 04:14:18;;;;;;;8.40;2.80;;;;;;;5.21;97.36;99972.84;5055338;28;20533;-66
2024/03/10 04:16:45;;;;;;;10.10;3.70;;;;;;;5.16;97.79;99974.75;5055624;28;20438;-66
2024/03/10 04:19:12;;;;;;;9.30;4.83;;;;;;;5.15;97.42;99971.28;5055163;28;20936;-66
2024/03/10 04:21:39;;;;;;;9.37;3.70;;;;;;;5.15;97.61;99973.97;5055518;28;20513;-67
2024/03/10 04:24:09;;;;;;;13.30;5.50;;;;;;;5.14;97.60;99977.75;5054795;28;21016;-67
2024/03/10 04:26:36;;;;;;;9.10;3.60;;;;;;;5.07;98.31;99971.88;5055335;28;20481;-67
2024/03/10 04:29:03;;;;;;;9.20;3.73;;;;;;;5.03;98.00;99973.50;5054942;28;20926;-67
2024/03/10 04:31:30;;;;;;;14.20;4.87;;;;;;;5.08;97.89;99973.47;5055447;28;20450;-67
2024/03/10 04:33:57;;;;;;;11.97;5.53;;;;;;;5.08;97.88;99976.16;5055360;28;20537;-67
2024/03/10 04:36:24;;;;;;;11.47;5.90;;;;;;;5.11;98.20;99980.16;5058707;28;20529;-68
2024/03/10 04:38:53;;;;;;;7.60;4.10;;;;;;;5.13;98.40;99978.78;5063252;28;20476;-68
2024/03/10 04:41:20;;;;;;;8.37;3.70;;;;;;;5.13;99.09;99972.63;5057331;28;20446;-68
2024/03/10 04:43:47;;;;;;;11.30;5.17;;;;;;;5.14;98.84;99972.38;5055433;28;20460;-68
2024/03/10 04:46:14;;;;;;;9.07;5.43;;;;;;;5.15;99.44;99965.91;5055276;28;20485;-68
2024/03/10 04:48:40;;;;;;;10.17;4.60;;;;;;;5.15;99.84;99967.78;5055198;28;20477;-69
2024/03/10 04:51:07;;;;;;;7.90;3.83;;;;;;;5.15;100.00;99967.78;5055221;28;20474;-69
2024/03/10 04:53:35;;;;;;;9.70;4.80;;;;;;;5.23;99.79;99968.00;5068975;28;20489;-69
2024/03/10 04:56:01;;;;;;;15.27;4.43;;;;;;;5.19;99.92;99968.84;5054951;28;20447;-69
2024/03/10 04:58:29;;;;;;;12.40;5.23;;;;;;;5.18;100.00;99976.09;5054824;28;20466;-68
2024/03/10 05:00:56;;;;;;;10.07;4.40;;;;;;;5.23;99.53;99977.94;5054834;28;20435;-68
2024/03/10 05:03:22;;;;;;;8.43;5.10;;;;;;;5.19;99.94;99972.31;5054207;28;20490;-65
2024/03/10 05:05:49;;;;;;;15.77;3.47;;;;;;;5.17;99.80;99977.16;5055700;28;20489;-66
2024/03/10 05:08:16;;;;;;;9.10;4.13;;;;;;;5.17;99.80;99979.03;5054813;28;20477;-67
2024/03/10 05:10:42;;;;;;;15.00;5.07;;;;;;;5.18;99.54;99975.28;5054114;28;20922;-68
2024/03/10 05:13:09;;;;;;;21.00;5.97;;;;;;;5.17;99.45;99976.34;5053984;28;20541;-68
2024/03/10 05:15:37;;;;;;;10.83;4.43;;;;;;;5.12;99.60;99969.16;5054886;28;20457;-69
2024/03/10 05:18:05;;;;;;;6.77;3.63;;;;;;;5.13;99.43;99970.75;5054333;28;20875;-68
2024/03/10 05:20:31;;;;;;;12.80;4.10;;;;;;;5.09;99.06;99966.22;5054569;28;20482;-68
2024/03/10 05:22:58;;;;;;;6.77;4.60;;;;;;;5.06;98.95;99970.28;5054073;28;20545;-68
2024/03/10 05:25:24;;;;;;;12.73;5.30;;;;;;;5.03;98.73;99962.78;5054107;28;20469;-68
2024/03/10 05:27:51;;;;;;;12.43;5.40;;;;;;;4.95;98.85;99966.84;5054479;28;20477;-68
2024/03/10 05:30:18;;;;;;;6.77;2.53;;;;;;;4.92;99.63;99969.31;5054141;28;20516;-68
2024/03/10 05:32:46;;;;;;;17.23;4.53;;;;;;;4.93;99.37;99962.84;5053928;28;20461;-68
2024/03/10 05:35:14;;;;;;;10.10;4.70;;;;;;;4.94;98.98;99964.44;5053753;28;20500;-68
2024/03/10 05:37:41;;;;;;;10.70;2.80;;;;;;;4.86;100.00;99967.72;5053982;28;20518;-68
2024/03/10 05:40:09;;;;;;;9.20;4.60;;;;;;;4.85;99.91;99958.06;5053932;28;20440;-68
2024/03/10 05:42:35;;;;;;;8.27;3.73;;;;;;;4.82;99.74;99964.78;5052825;28;20974;-70
2024/03/10 05:45:03;;;;;;;9.80;4.83;;;;;;;4.87;99.62;99959.41;5053957;28;20512;-69
2024/03/10 05:47:30;;;;;;;11.37;5.20;;;;;;;4.87;99.78;99959.41;5054445;28;20447;-69
2024/03/10 05:49:58;;;;;;;8.80;4.70;;;;;;;4.89;99.56;99954.56;5053751;28;20438;-69
2024/03/10 05:52:26;;;;;;;10.43;4.80;;;;;;;4.91;99.37;99951.56;5053771;28;20462;-69
2024/03/10 05:54:52;;;;;;;11.13;4.20;;;;;;;4.94;99.59;99948.34;5053506;28;20933;-67
2024/03/10 05:57:19;;;;;;;6.17;3.90;;;;;;;4.95;100.00;99955.31;5053602;28;20470;-68
2024/03/10 05:59:47;;;;;;;12.70;5.73;;;;;;;4.95;100.00;99955.31;5053954;28;20521;-68
2024/03/10 06:02:14;;;;;;;15.30;4.13;;;;;;;4.99;100.00;99951.78;5053316;28;21037;-68
2024/03/10 06:04:41;;;;;;;17.73;5.20;;;;;;;5.04;100.00;99956.31;5053694;28;20486;-68
2024/03/10 06:07:10;;;;;;;8.20;3.70;;;;;;;5.07;100.00;99950.41;5053529;28;20445;-68
2024/03/10 06:09:37;;;;;;;11.40;5.43;;;;;;;5.13;100.00;99953.84;5053623;28;20514;-67
2024/03/10 06:12:06;;;;;;;7.93;4.30;;;;;;;5.10;100.00;99949.03;5053730;28;20458;-70
2024/03/10 06:14:33;;;;;;;11.33;4.67;;;;;;;5.12;100.00;99946.88;5053376;28;20442;-69
2024/03/10 06:16:59;;;;;;;15.17;3.90;;;;;;;5.19;100.00;99950.03;5053381;28;20448;-69
2024/03/10 06:27:42;;;;;;;8.57;3.23;;;;;;;5.32;100.00;99965.50;5053213;28;20476;-69
2024/03/10 06:30:10;;;;;;;7.13;4.77;;;;;;;5.31;100.00;99956.66;5053594;28;20495;-69
2024/03/10 06:32:37;;;;;;;6.10;3.73;;;;;;;5.37;100.00;99949.34;5053925;28;20466;-69
2024/03/10 06:35:04;;;;;;;6.53;4.03;;;;;;;5.41;100.00;99952.28;5053277;28;20488;-69
2024/03/10 06:37:33;;;;;;;25.77;6.80;;;;;;;5.44;99.96;99946.31;5053309;28;20470;-70
2024/03/10 06:40:00;;;;;;;6.60;3.80;;;;;;;5.45;99.47;99945.25;5053122;28;20444;-69
2024/03/10 06:42:26;;;;;;;7.20;4.13;;;;;;;5.51;99.64;99952.19;5053115;28;20462;-69
2024/03/10 06:44:53;;;;;;;12.53;3.73;;;;;;;5.52;99.75;99946.53;5052910;28;20537;-69
2024/03/10 06:47:20;;;;;;;24.97;4.27;;;;;;;5.59;99.55;99946.19;5053517;28;20446;-69
2024/03/10 06:49:47;;;;;;;7.40;3.90;;;;;;;5.62;99.18;99942.94;5052849;28;20445;-69
2024/03/10 06:52:14;;;;;;;9.83;3.33;;;;;;;5.69;98.49;99937.22;5053440;28;20457;-69
2024/03/10 06:54:43;;;;;;;16.90;4.90;;;;;;;5.71;98.50;99946.63;5057469;28;20792;-70
2024/03/10 06:57:09;;;;;;;14.73;4.33;;;;;;;5.71;98.93;99946.63;5057311;28;20484;-70
2024/03/10 06:59:36;;;;;;;16.00;5.00;;;;;;;5.77;98.17;99940.09;5057171;28;20541;-70
2024/03/10 07:02:04;;;;;;;8.73;3.60;;;;;;;5.76;98.16;99943.09;5056839;28;20878;-70
2024/03/10 07:04:32;;;;;;;12.03;4.20;;;;;;;5.82;98.05;99936.56;5055438;28;20968;-70
2024/03/10 07:06:59;;;;;;;10.13;4.80;;;;;;;5.85;97.94;99940.56;5056746;28;20521;-70
2024/03/10 07:09:26;;;;;;;11.80;5.20;;;;;;;5.90;98.25;99938.63;5056413;28;20478;-69
2024/03/10 07:11:54;;;;;;;8.30;4.20;;;;;;;6.02;98.06;99940.94;5056647;28;20445;-70
2024/03/10 07:14:21;;;;;;;10.37;5.50;;;;;;;6.09;98.53;99937.91;5056690;28;20445;-70
2024/03/10 07:16:49;;;;;;;15.23;4.70;;;;;;;6.18;98.37;99942.34;5056373;28;20927;-70
2024/03/10 07:19:16;;;;;;;15.80;5.23;;;;;;;6.23;98.15;99944.97;5056565;28;20438;-70
2024/03/10 07:21:43;;;;;;;9.30;4.47;;;;;;;6.31;97.83;99949.72;5056472;28;20449;-70
2024/03/10 07:24:10;;;;;;;13.87;5.13;;;;;;;6.41;97.32;99953.38;5069819;22;20513;-70
2024/03/10 07:26:37;;;;;;;14.07;5.07;;;;;;;6.48;97.55;99960.00;5056394;28;20485;-70
2024/03/10 07:29:05;;;;;;;21.13;5.63;;;;;;;6.52;96.97;99952.16;5056548;28;20464;-70
2024/03/10 07:31:31;;;;;;;10.50;4.40;;;;;;;6.58;96.92;99942.91;5056729;28;20437;-70
2024/03/10 07:33:58;;;;;;;9.10;4.20;;;;;;;6.70;96.63;99942.50;5056341;28;20547;-71
2024/03/10 07:36:26;;;;;;;9.53;4.00;;;;;;;6.80;96.41;99931.56;5056276;28;20517;-71
2024/03/10 07:38:53;;;;;;;16.77;4.70;;;;;;;6.90;96.07;99926.03;5056745;28;20446;-70
2024/03/10 07:41:20;;;;;;;13.10;5.57;;;;;;;6.94;95.69;99918.19;5055941;28;21004;-70
2024/03/10 07:43:47;;;;;;;12.43;6.23;;;;;;;6.96;94.85;99922.19;5056126;28;20553;-70
2024/03/10 07:46:15;;;;;;;14.33;6.70;;;;;;;7.04;94.62;99928.81;5055778;28;20536;-71
2024/03/10 07:48:43;;;;;;;10.43;5.27;;;;;;;7.10;94.55;99924.94;5055735;28;20480;-71
2024/03/10 07:51:10;;;;;;;18.70;5.50;;;;;;;7.19;94.12;99928.56;5056032;28;20533;-70
2024/03/10 07:53:36;;;;;;;12.30;6.60;;;;;;;7.23;93.69;99926.88;5055915;28;20548;-70
2024/03/10 07:56:03;;;;;;;8.97;3.83;;;;;;;7.33;93.51;99932.06;5055913;28;20439;-70
2024/03/10 07:58:30;;;;;;;11.30;4.77;;;;;;;7.42;92.74;99934.91;5056171;28;20521;-70
2024/03/10 08:00:57;;;;;;;13.77;5.47;;;;;;;7.50;92.97;99938.81;5055742;28;20434;-70
2024/03/10 08:03:25;;;;;;;17.80;5.30;;;;;;;7.57;92.42;99936.53;5055667;28;20485;-70
2024/03/10 08:05:52;;;;;;;9.43;4.00;;;;;;;7.65;91.71;99930.44;5054827;28;20488;-70
2024/03/10 08:08:19;;;;;;;14.10;5.43;;;;;;;7.75;91.52;99932.19;5055720;28;20442;-71
2024/03/10 08:10:45;;;;;;;12.20;5.50;;;;;;;7.86;91.19;99938.16;5055915;28;20438;-70
2024/03/10 08:13:12;;;;;;;8.77;4.50;;;;;;;7.94;90.40;99930.19;5055716;28;20468;-71
2024/03/10 08:15:39;;;;;;;12.07;6.00;;;;;;;8.02;90.22;99939.47;5055731;28;20445;-71
2024/03/10 08:18:06;;;;;;;11.43;5.57;;;;;;;8.10;90.17;99936.06;5055391;28;20819;-71
2024/03/10 08:20:35;;;;;;;17.17;7.10;;;;;;;8.23;90.61;99929.84;5055509;28;20438;-70
2024/03/10 08:23:04;;;;;;;12.03;5.87;;;;;;;8.40;89.83;99929.25;5055226;28;20466;-71
2024/03/10 08:25:31;;;;;;;14.43;5.47;;;;;;;8.55;88.72;99928.97;5055635;28;20466;-71
2024/03/10 08:27:58;;;;;;;12.10;6.27;;;;;;;8.66;87.06;99939.53;5055374;28;20438;-71
2024/03/10 08:30:25;;;;;;;16.50;6.30;;;;;;;8.73;87.01;99929.13;5055569;28;20528;-71
2024/03/10 08:32:52;;;;;;;13.70;5.50;;;;;;;8.80;86.96;99927.56;5055263;28;20545;-71
2024/03/10 08:35:20;;;;;;;15.20;5.63;;;;;;;8.91;86.06;99928.16;5055137;28;20476;-71
2024/03/10 08:37:49;;;;;;;15.60;6.47;;;;;;;9.00;85.27;99917.41;5055179;28;20445;-70
2024/03/10 08:40:17;;;;;;;7.73;4.00;;;;;;;9.06;85.70;99922.38;5055079;28;20446;-70
2024/03/10 08:42:44;;;;;;;13.03;5.70;;;;;;;9.16;85.45;99923.22;5055041;28;20549;-71
2024/03/10 08:45:12;;;;;;;15.57;7.07;;;;;;;9.25;84.76;99924.06;5054623;28;20444;-71
2024/03/10 08:47:39;;;;;;;12.83;5.20;;;;;;;9.29;84.45;99917.75;5055116;28;20477;-71
2024/03/10 08:50:09;;;;;;;10.60;5.57;;;;;;;9.31;83.82;99923.66;5054901;28;20449;-71
2024/03/10 08:52:36;;;;;;;9.30;4.90;;;;;;;9.35;83.98;99927.34;5054759;28;20472;-70
2024/03/10 08:55:06;;;;;;;11.43;5.70;;;;;;;9.43;83.78;99924.97;5054717;28;20446;-70
2024/03/10 08:57:33;;;;;;;11.87;6.13;;;;;;;9.43;83.61;99935.78;5054710;28;20438;-70
2024/03/10 09:00:00;;;;;;;9.97;5.20;;;;;;;9.49;83.67;99929.16;5054864;28;20442;-70
2024/03/10 09:02:27;;;;;;;11.03;5.07;;;;;;;9.54;83.59;99919.00;5054866;28;20497;-70
2024/03/10 09:04:54;;;;;;;13.80;6.40;;;;;;;9.56;83.57;99924.09;5054899;28;20739;-70
2024/03/10 09:07:21;;;;;;;18.33;7.33;;;;;;;9.58;83.12;99927.31;5054445;28;20489;-70
2024/03/10 09:09:48;;;;;;;21.13;5.27;;;;;;;9.67;82.93;99925.44;5054846;28;20438;-70
2024/03/10 09:12:17;;;;;;;11.70;5.10;;;;;;;9.78;82.41;99924.06;5054555;28;20493;-70
2024/03/10 09:14:44;;;;;;;15.90;6.60;;;;;;;9.81;81.11;99919.94;5054783;28;20442;-70
2024/03/10 09:17:10;;;;;;;17.03;7.20;;;;;;;9.81;81.17;99919.94;5054629;28;20445;-70
2024/03/10 09:19:37;;;;;;;15.97;6.97;;;;;;;9.82;81.31;99916.09;5054562;28;20434;-70
2024/03/10 09:22:04;;;;;;;14.40;6.43;;;;;;;9.86;81.27;99917.88;5054403;28;20451;-70
2024/03/10 09:24:31;;;;;;;11.00;5.83;;;;;;;9.93;81.39;99905.81;5053960;28;20504;-70
2024/03/10 09:26:57;;;;;;;9.37;6.00;;;;;;;9.96;80.91;99921.41;5054116;28;20823;-70
2024/03/10 09:29:26;;;;;;;12.50;6.43;;;;;;;10.05;80.43;99908.72;5054300;28;20523;-70
2024/03/10 09:31:55;;;;;;;13.20;6.27;;;;;;;10.13;80.18;99920.66;5053665;28;20957;-70
2024/03/10 09:34:22;;;;;;;22.17;6.97;;;;;;;10.20;79.68;99926.44;5053931;28;20445;-70
2024/03/10 09:36:48;;;;;;;10.27;5.40;;;;;;;10.26;79.83;99926.00;5053870;28;20434;-70
2024/03/10 09:39:16;;;;;;;14.27;6.40;;;;;;;10.39;79.28;99934.31;5054216;28;20446;-70
2024/03/10 09:41:42;;;;;;;19.43;7.50;;;;;;;10.42;79.23;99929.06;5054171;28;20434;-70
2024/03/10 09:44:16;;;;;;;16.37;7.80;;;;;;;10.52;79.08;99938.78;5053637;28;21013;-70
2024/03/10 09:46:48;;;;;;;11.27;5.80;;;;;;;10.61;77.68;99932.25;5053936;28;20695;-70
2024/03/10 09:49:16;;;;;;;12.03;6.70;;;;;;;10.69;77.05;99932.59;5053880;28;20871;-71
2024/03/10 09:51:45;;;;;;;14.10;7.23;;;;;;;10.69;77.04;99927.97;5053704;28;20448;-70
2024/03/10 09:54:12;;;;;;;20.10;7.07;;;;;;;10.71;76.66;99925.72;5054218;28;20431;-70
2024/03/10 09:56:40;;;;;;;13.00;6.30;;;;;;;10.73;76.95;99920.81;5054093;28;20441;-70
2024/03/10 09:59:13;;;;;;;16.33;6.47;;;;;;;10.72;76.66;99913.81;5054440;28;20442;-70
2024/03/10 10:01:43;;;;;;;11.17;5.83;;;;;;;10.79;77.04;99916.81;5054056;28;20480;-69
2024/03/10 10:04:15;;;;;;;15.93;6.93;;;;;;;10.88;77.27;99905.97;5053275;28;20958;-69
2024/03/10 10:06:43;;;;;;;14.73;7.80;;;;;;;11.02;76.59;99912.03;5053863;28;20549;-68
2024/03/10 10:09:11;;;;;;;10.20;5.90;;;;;;;11.10;76.79;99905.00;5053479;28;20536;-69
2024/03/10 10:11:38;;;;;;;20.20;7.50;;;;;;;11.15;76.39;99910.25;5053339;28;20745;-69
2024/03/10 10:14:10;;;;;;;13.67;6.87;;;;;;;11.20;75.43;99903.88;5053404;28;20588;-67
2024/03/10 10:16:37;;;;;;;10.57;7.73;;;;;;;11.28;75.94;99906.56;5053302;28;20529;-67
2024/03/10 10:19:05;;;;;;;19.00;7.27;;;;;;;11.28;74.79;99897.63;5052986;28;20533;-67
2024/03/10 10:21:35;;;;;;;10.83;5.90;;;;;;;11.28;75.86;99906.56;5053049;28;20447;-68
2024/03/10 10:24:04;;;;;;;18.80;7.27;;;;;;;11.35;74.41;99906.88;5053028;28;20559;-67
2024/03/10 10:26:30;;;;;;;18.73;7.53;;;;;;;11.48;74.00;99909.72;5053877;28;20482;-68
2024/03/10 10:29:07;;;;;;;17.63;7.60;;;;;;;11.68;73.64;99906.28;5058892;28;20437;-68
2024/03/10 10:31:34;;;;;;;16.83;8.10;;;;;;;11.87;73.07;99897.81;5059964;28;20475;-67
2024/03/10 10:34:02;;;;;;;23.30;7.60;;;;;;;12.15;72.79;99895.41;5060001;28;20541;-67
2024/03/10 10:36:28;;;;;;;13.97;7.43;;;;;;;12.39;72.08;99889.34;5060161;28;20434;-67
2024/03/10 10:38:56;;;;;;;14.70;7.40;;;;;;;12.58;71.20;99897.06;5060288;28;20438;-67
2024/03/10 10:41:24;;;;;;;17.00;8.13;;;;;;;12.47;70.09;99887.69;5059571;28;21076;-68
2024/03/10 10:43:52;;;;;;;16.20;8.77;;;;;;;12.52;70.02;99879.34;5060417;28;20465;-68
2024/03/10 10:46:20;;;;;;;14.90;6.23;;;;;;;12.65;70.02;99878.28;5059479;28;20516;-68
2024/03/10 10:48:48;;;;;;;13.57;6.47;;;;;;;12.59;69.68;99876.91;5059696;28;20537;-68
2024/03/10 10:51:14;;;;;;;13.97;7.17;;;;;;;12.53;69.67;99883.69;5060140;28;20520;-68
2024/03/10 10:53:43;;;;;;;15.40;6.20;;;;;;;12.48;69.34;99872.97;5059828;28;20453;-67
2024/03/10 10:56:12;;;;;;;13.80;7.20;;;;;;;12.41;69.04;99864.59;5060234;28;20818;-67
2024/03/10 10:58:40;;;;;;;14.83;7.83;;;;;;;12.28;69.50;99859.06;5059977;28;20446;-67
2024/03/10 11:01:08;;;;;;;18.00;7.17;;;;;;;12.29;69.28;99862.59;5059871;28;20442;-68
2024/03/10 11:03:36;;;;;;;16.37;8.63;;;;;;;12.28;69.70;99850.13;5059571;28;20540;-68
2024/03/10 11:06:27;;;;;;;12.80;6.57;;;;;;;12.33;70.20;99845.28;5059629;28;20841;-68
2024/03/10 11:08:55;;;;;;;17.20;7.87;;;;;;;12.43;69.76;99840.59;5059508;28;20918;-68
2024/03/10 11:11:48;;;;;;;18.37;8.43;;;;;;;12.56;69.20;99839.53;5059670;28;20438;-67
2024/03/10 11:14:16;;;;;;;18.20;7.37;;;;;;;12.61;70.03;99836.59;5059303;28;20445;-68
2024/03/10 11:16:43;;;;;;;15.60;6.97;;;;;;;12.68;69.51;99836.88;5059585;28;20430;-68
2024/03/10 11:19:15;;;;;;;10.83;6.70;;;;;;;12.81;69.01;99835.78;5059584;28;20532;-67
2024/03/10 11:21:44;;;;;;;15.20;6.60;;;;;;;12.98;69.45;99837.56;5059776;28;20460;-69
2024/03/10 11:24:16;;;;;;;10.47;5.57;;;;;;;13.06;67.46;99836.69;5059206;28;20536;-68
2024/03/10 11:26:43;;;;;;;16.13;7.60;;;;;;;13.20;67.86;99828.22;5059807;28;20983;-68
2024/03/10 11:29:26;;;;;;;16.13;8.07;;;;;;;13.30;66.59;99830.50;5059995;28;20448;-68
2024/03/10 11:31:57;;;;;;;17.77;8.30;;;;;;;13.48;66.73;99824.88;5059348;28;20433;-68
2024/03/10 11:34:25;;;;;;;17.20;7.27;;;;;;;13.68;66.09;99812.28;5059107;28;20919;-68
2024/03/10 11:36:52;;;;;;;17.90;7.30;;;;;;;14.06;64.92;99825.53;5059365;28;20446;-68
2024/03/10 11:39:21;;;;;;;16.40;6.97;;;;;;;14.13;63.49;99809.41;5056776;28;20440;-68
2024/03/10 11:41:49;;;;;;;13.70;6.17;;;;;;;14.18;64.11;99820.06;5056066;28;20442;-68
2024/03/10 11:44:16;;;;;;;13.60;7.00;;;;;;;14.27;63.10;99809.03;5056679;28;20537;-68
2024/03/10 11:46:44;;;;;;;15.40;6.93;;;;;;;14.25;63.42;99811.28;5055984;28;20557;-68
2024/03/10 11:49:13;;;;;;;13.33;6.10;;;;;;;14.19;63.56;99802.56;5056015;28;20532;-68
2024/03/10 11:51:40;;;;;;;14.80;5.30;;;;;;;14.38;62.55;99807.38;5055698;28;20473;-68
2024/03/10 11:54:11;;;;;;;16.40;7.23;;;;;;;14.25;61.72;99806.63;5055842;28;20455;-68
2024/03/10 11:56:39;;;;;;;14.10;7.13;;;;;;;14.09;62.74;99803.06;5055576;28;20454;-68
2024/03/10 11:59:06;;;;;;;14.77;6.77;;;;;;;14.16;62.93;99807.91;5056260;28;20521;-68
2024/03/10 12:01:32;;;;;;;13.70;6.80;;;;;;;14.00;62.65;99799.69;5055819;28;20489;-68